Main page
METAR-TAF:

METAR-TAF

Airports :

Málaga, Spain

Málaga Airport

latitude: 36-40N, longitude: 004-29W, elevation: 16 m

Current weather observation

The report was made 18 minutes ago, at 16:30 UTC
Wind 8 kt from the East/Southeast, varying between East and South/Southeast
Temperature 29°C
Humidity 35%
Pressure 1012 hPa
Visibility 10 km or more
no clouds below 1500 m and no cumulonimbus

METAR: LEMG 221630Z 12008KT 100V160 CAVOK 29/12 Q1012 NOSIG

Time: 18:48 (16:48 UTC)

Forecast

The report was made 5 hours and 48 minutes ago, at 11:00 UTC
Forecast valid from 22 at 12 UTC to 23 at 12 UTC
Wind 6 kt from the Southeast
Visibility 10 km or more
no clouds below 1500 m and no cumulonimbus

TAF: LEMG 221100Z 2212/2312 13006KT CAVOK TX29/2213Z TN18/2301Z

Weather observations and forecasts of more than 4000 airports (METAR and TAF reports).

The available stations are represented by yellow and red dots on the map.

Hover mouse over dot to see the name of the station.

Then click to see weather observations and forecasts.

To change the map : click on the green buttons with a black cross to zoom in, on the green button with a dash to zoom out, or on the green arrows for adjacent maps.


METAR-TAF: